Time;durP1;ratioP1;P1;durP2;ratioP2;P2;SDS_P1;SDS_P2;PMS_P1;PMS_P2;Temp;Humidity;BMP_temperature;BMP_pressure;BME280_temperature;BME280_humidity;BME280_pressure;Samples;Min_cycle;Max_cycle;Signal;HPM_P1;HPM_P2
2022/12/06 00:02:54;;;;;;;13.50;8.73;;;;;;;;;;5037485;28;20200;-79
2022/12/06 00:06:03;;;;;;;11.23;9.17;;;;;;;;;;5049092;28;20196;-79
2022/12/06 00:09:16;;;;;;;10.20;8.40;;;;;;;;;;5036855;28;20203;-79
2022/12/06 00:12:20;;;;;;;13.73;8.70;;;;;;;;;;5037282;28;20670;-79
2022/12/06 00:15:24;;;;;;;10.83;8.73;;;;;;;;;;5037588;28;20188;-79
2022/12/06 00:18:31;;;;;;;10.93;8.47;;;;;;;;;;5048694;28;20184;-79
2022/12/06 00:21:36;;;;;;;13.03;9.37;;;;;;;;;;5037137;28;20215;-79
2022/12/06 00:24:40;;;;;;;13.77;9.70;;;;;;;;;;5047744;28;20627;-79
2022/12/06 00:27:44;;;;;;;13.00;9.70;;;;;;;;;;5037455;28;20179;-79
2022/12/06 00:30:49;;;;;;;14.63;9.93;;;;;;;;;;5048304;28;20208;-79
2022/12/06 00:33:53;;;;;;;13.53;9.90;;;;;;;;;;5038237;28;20172;-79
2022/12/06 00:36:58;;;;;;;11.80;9.17;;;;;;;;;;5068460;28;20179;-79
2022/12/06 00:40:02;;;;;;;14.07;10.77;;;;;;;;;;5068557;28;20191;-79
2022/12/06 00:43:07;;;;;;;14.03;10.27;;;;;;;;;;5056515;28;20207;-79
2022/12/06 00:46:15;;;;;;;14.03;10.27;;;;;;;;;;5056750;28;20176;-78
2022/12/06 00:49:19;;;;;;;17.37;11.13;;;;;;;;;;5068133;28;20184;-79
2022/12/06 00:52:23;;;;;;;15.63;10.87;;;;;;;;;;5045854;28;20207;-79
2022/12/06 00:55:27;;;;;;;15.57;11.33;;;;;;;;;;5068421;28;20176;-79
2022/12/06 00:58:31;;;;;;;16.57;11.87;;;;;;;;;;5068436;28;20188;-79
2022/12/06 01:01:35;;;;;;;16.40;11.67;;;;;;;;;;5056320;28;20219;-79
2022/12/06 01:04:39;;;;;;;17.30;12.07;;;;;;;;;;5078954;28;20627;-79
2022/12/06 01:07:43;;;;;;;19.03;12.80;;;;;;;;;;5055928;28;20175;-79
2022/12/06 01:10:52;;;;;;;17.00;12.47;;;;;;;;;;5055969;28;20697;-79
2022/12/06 01:13:56;;;;;;;18.60;12.70;;;;;;;;;;5067292;28;20527;-78
2022/12/06 01:17:00;;;;;;;20.87;12.63;;;;;;;;;;5055724;28;20180;-78
2022/12/06 01:20:05;;;;;;;21.70;13.03;;;;;;;;;;5055309;28;20650;-79
2022/12/06 01:23:09;;;;;;;18.50;12.63;;;;;;;;;;5066949;28;20222;-79
2022/12/06 01:26:24;;;;;;;18.67;13.07;;;;;;;;;;5066682;28;20179;-79
2022/12/06 01:29:28;;;;;;;18.70;13.43;;;;;;;;;;5067296;28;20531;-78
2022/12/06 01:32:33;;;;;;;19.67;12.67;;;;;;;;;;5055486;28;20211;-78
2022/12/06 01:35:41;;;;;;;19.43;13.43;;;;;;;;;;5067085;28;20195;-79
2022/12/06 01:38:54;;;;;;;19.00;12.70;;;;;;;;;;5078500;28;20179;-79
2022/12/06 01:41:58;;;;;;;19.60;13.70;;;;;;;;;;5077649;28;20211;-79
2022/12/06 01:45:03;;;;;;;18.83;12.80;;;;;;;;;;5054880;28;20191;-79
2022/12/06 01:48:07;;;;;;;19.80;13.10;;;;;;;;;;5066929;28;20191;-78
2022/12/06 01:51:13;;;;;;;21.57;13.73;;;;;;;;;;5055078;28;20677;-79
2022/12/06 01:54:19;;;;;;;17.70;12.60;;;;;;;;;;5054744;28;20175;-79
2022/12/06 01:57:23;;;;;;;16.33;11.73;;;;;;;;;;5066209;28;20542;-78
2022/12/06 02:00:27;;;;;;;17.43;11.93;;;;;;;;;;5049848;28;20201;-78
2022/12/06 02:03:33;;;;;;;18.70;12.67;;;;;;;;;;5045980;28;20208;-78
2022/12/06 02:06:39;;;;;;;17.67;12.23;;;;;;;;;;5034144;28;20235;-79
2022/12/06 02:09:45;;;;;;;16.40;11.47;;;;;;;;;;5050579;23;20232;-78
2022/12/06 02:12:54;;;;;;;17.77;12.30;;;;;;;;;;4997342;28;20170;-78
2022/12/06 02:16:17;;;;;;;18.73;11.80;;;;;;;;;;5020527;28;20655;-78
2022/12/06 02:19:30;;;;;;;17.20;11.67;;;;;;;;;;5034950;28;20205;-78
2022/12/06 02:23:09;;;;;;;22.23;13.87;;;;;;;;;;5022464;28;20569;-78
2022/12/06 02:26:27;;;;;;;23.73;13.13;;;;;;;;;;5018620;28;20177;-78
2022/12/06 02:29:34;;;;;;;17.53;12.63;;;;;;;;;;5040692;28;20574;-78
2022/12/06 02:33:00;;;;;;;20.47;13.67;;;;;;;;;;5031031;28;20711;-78
2022/12/06 02:36:30;;;;;;;21.73;14.33;;;;;;;;;;5008005;28;20181;-78
2022/12/06 02:39:48;;;;;;;23.57;14.97;;;;;;;;;;5019462;28;20173;-78
2022/12/06 02:42:56;;;;;;;20.17;13.83;;;;;;;;;;5040671;28;20225;-78
2022/12/06 02:46:03;;;;;;;19.47;14.23;;;;;;;;;;5027266;28;20623;-78
2022/12/06 02:49:10;;;;;;;19.77;12.93;;;;;;;;;;5029247;28;20177;-78
2022/12/06 02:52:18;;;;;;;24.03;14.57;;;;;;;;;;5020217;28;20564;-78
2022/12/06 02:55:23;;;;;;;18.50;12.87;;;;;;;;;;4999342;28;20174;-78
2022/12/06 02:58:27;;;;;;;20.50;13.70;;;;;;;;;;5033791;28;20189;-78
2022/12/06 03:01:36;;;;;;;16.87;12.47;;;;;;;;;;5022709;28;20217;-78
2022/12/06 03:04:49;;;;;;;17.80;12.90;;;;;;;;;;5033793;28;20213;-78
2022/12/06 03:07:55;;;;;;;18.53;12.63;;;;;;;;;;5033934;28;20181;-78
2022/12/06 03:11:01;;;;;;;21.53;13.20;;;;;;;;;;5033446;28;20221;-78
2022/12/06 03:14:14;;;;;;;19.03;12.73;;;;;;;;;;5011242;28;20174;-78
2022/12/06 03:17:26;;;;;;;18.47;12.80;;;;;;;;;;5022763;28;20182;-78
2022/12/06 03:20:41;;;;;;;18.23;12.87;;;;;;;;;;5010938;28;20182;-78
2022/12/06 03:23:49;;;;;;;21.23;13.23;;;;;;;;;;5021384;28;20221;-78
2022/12/06 03:26:55;;;;;;;21.47;13.53;;;;;;;;;;5010363;28;20197;-78
2022/12/06 03:30:05;;;;;;;17.40;12.00;;;;;;;;;;4999460;28;20177;-78
2022/12/06 03:33:11;;;;;;;19.73;12.80;;;;;;;;;;5029999;28;20210;-78
2022/12/06 03:36:17;;;;;;;16.80;11.90;;;;;;;;;;5036030;28;20204;-78
2022/12/06 03:39:43;;;;;;;19.50;12.50;;;;;;;;;;5041851;28;20181;-78
2022/12/06 03:42:48;;;;;;;17.03;11.87;;;;;;;;;;5041519;28;20189;-77
2022/12/06 03:46:11;;;;;;;17.00;11.77;;;;;;;;;;5028181;28;20177;-78
2022/12/06 03:49:20;;;;;;;16.43;11.80;;;;;;;;;;5017299;28;20206;-78
2022/12/06 03:52:27;;;;;;;22.20;13.13;;;;;;;;;;5020762;28;20213;-77
2022/12/06 03:55:31;;;;;;;17.70;11.43;;;;;;;;;;5033034;28;20177;-78
2022/12/06 03:58:36;;;;;;;18.37;12.27;;;;;;;;;;5010493;28;20178;-78
2022/12/06 04:01:40;;;;;;;18.17;12.17;;;;;;;;;;5020420;28;20221;-78
2022/12/06 04:04:44;;;;;;;17.80;12.47;;;;;;;;;;5032974;28;20213;-78
2022/12/06 04:07:48;;;;;;;17.00;11.60;;;;;;;;;;5032405;28;20628;-78
2022/12/06 04:10:52;;;;;;;19.07;11.83;;;;;;;;;;5032309;28;20221;-78
2022/12/06 04:13:57;;;;;;;17.30;13.03;;;;;;;;;;5020898;28;20193;-78
2022/12/06 04:20:26;;;;;;;18.37;12.27;;;;;;;;;;5021092;28;20186;-77
2022/12/06 04:23:33;;;;;;;19.43;12.97;;;;;;;;;;5031689;28;20205;-77
2022/12/06 04:26:37;;;;;;;19.27;11.93;;;;;;;;;;5020635;28;20631;-78
2022/12/06 04:39:49;;;;;;;20.90;12.67;;;;;;;;;;5040600;28;20185;-80
2022/12/06 04:46:16;;;;;;;20.73;13.80;;;;;;;;;;5052522;28;20181;-79
2022/12/06 04:49:21;;;;;;;20.30;13.17;;;;;;;;;;5024147;28;20204;-79
2022/12/06 04:52:25;;;;;;;17.83;12.93;;;;;;;;;;5022503;28;20216;-79
2022/12/06 04:55:29;;;;;;;21.00;13.83;;;;;;;;;;5010984;28;20174;-79
2022/12/06 04:58:34;;;;;;;25.90;14.60;;;;;;;;;;5022109;28;20173;-79
2022/12/06 05:01:38;;;;;;;18.60;13.33;;;;;;;;;;5032959;28;20209;-79
2022/12/06 05:04:42;;;;;;;22.53;13.43;;;;;;;;;;5024058;28;20248;-79
2022/12/06 05:07:46;;;;;;;22.50;14.07;;;;;;;;;;5011304;28;20181;-79
2022/12/06 05:10:50;;;;;;;20.90;13.60;;;;;;;;;;5033136;28;20229;-79
2022/12/06 05:13:54;;;;;;;22.37;14.10;;;;;;;;;;5022619;28;20620;-78
2022/12/06 05:16:59;;;;;;;22.10;13.90;;;;;;;;;;5033420;28;20182;-79
2022/12/06 05:20:04;;;;;;;22.40;14.27;;;;;;;;;;5021947;28;20185;-79
2022/12/06 05:23:09;;;;;;;23.83;13.67;;;;;;;;;;5033946;28;20177;-79
2022/12/06 05:26:16;;;;;;;21.23;13.90;;;;;;;;;;5010696;28;20181;-80
2022/12/06 05:29:20;;;;;;;21.90;13.93;;;;;;;;;;5021974;28;20545;-79
2022/12/06 05:32:24;;;;;;;18.47;13.33;;;;;;;;;;5010104;28;20216;-80
2022/12/06 05:35:28;;;;;;;22.10;14.07;;;;;;;;;;5016195;28;20204;-79
2022/12/06 05:38:33;;;;;;;21.97;14.33;;;;;;;;;;5030517;28;20188;-79
2022/12/06 05:41:37;;;;;;;22.13;14.13;;;;;;;;;;5030024;28;20212;-80
2022/12/06 05:44:42;;;;;;;21.23;14.00;;;;;;;;;;5041794;28;20213;-80
2022/12/06 05:47:46;;;;;;;21.83;13.63;;;;;;;;;;5029947;28;20197;-79
2022/12/06 05:50:51;;;;;;;21.80;14.27;;;;;;;;;;5040630;28;20216;-79
2022/12/06 05:53:55;;;;;;;23.23;14.73;;;;;;;;;;5029556;28;20642;-78
2022/12/06 05:56:59;;;;;;;21.30;14.63;;;;;;;;;;5041029;28;20181;-79
2022/12/06 06:00:04;;;;;;;22.07;15.23;;;;;;;;;;5042399;28;20189;-79
2022/12/06 06:03:10;;;;;;;21.93;14.03;;;;;;;;;;5053142;28;20181;-79
2022/12/06 06:06:15;;;;;;;23.40;14.87;;;;;;;;;;5049888;28;20173;-79
2022/12/06 06:09:20;;;;;;;22.80;14.50;;;;;;;;;;5040170;28;20204;-78
2022/12/06 06:12:24;;;;;;;25.47;15.83;;;;;;;;;;5061236;28;20212;-79
2022/12/06 06:15:28;;;;;;;27.00;16.80;;;;;;;;;;5026535;28;20197;-78
2022/12/06 06:18:32;;;;;;;25.87;16.17;;;;;;;;;;5015405;28;20201;-79
2022/12/06 06:21:36;;;;;;;26.67;15.50;;;;;;;;;;5025679;28;20208;-79
2022/12/06 06:24:41;;;;;;;26.97;16.43;;;;;;;;;;5048356;28;20204;-79
2022/12/06 06:27:45;;;;;;;30.20;17.57;;;;;;;;;;5037642;28;20181;-79
2022/12/06 06:30:50;;;;;;;26.53;16.70;;;;;;;;;;5033672;28;20216;-78
2022/12/06 06:33:54;;;;;;;25.80;16.53;;;;;;;;;;5024835;28;20193;-79
2022/12/06 06:36:58;;;;;;;26.73;17.40;;;;;;;;;;5037941;28;20176;-79
2022/12/06 06:40:03;;;;;;;25.87;16.60;;;;;;;;;;5048437;28;20193;-79
2022/12/06 06:43:16;;;;;;;25.43;16.13;;;;;;;;;;5038116;28;20197;-79
2022/12/06 06:46:21;;;;;;;23.93;15.40;;;;;;;;;;5037772;28;20177;-79
2022/12/06 06:49:25;;;;;;;41.17;27.87;;;;;;;;;;5048742;28;20181;-79
2022/12/06 06:52:29;;;;;;;27.67;19.20;;;;;;;;;;5037227;28;20217;-79
2022/12/06 06:55:35;;;;;;;24.53;16.63;;;;;;;;;;5027569;28;20173;-79
2022/12/06 06:58:38;;;;;;;25.13;15.93;;;;;;;;;;5048694;28;20181;-79
2022/12/06 07:01:42;;;;;;;25.70;16.53;;;;;;;;;;5037181;28;20223;-79
2022/12/06 07:04:48;;;;;;;23.80;15.73;;;;;;;;;;5036408;28;20208;-79
2022/12/06 07:07:53;;;;;;;24.90;16.37;;;;;;;;;;5040509;28;20181;-79
2022/12/06 07:10:58;;;;;;;24.83;16.77;;;;;;;;;;5036342;28;20240;-79
2022/12/06 07:14:02;;;;;;;22.10;15.20;;;;;;;;;;5025047;28;20245;-80
2022/12/06 07:17:06;;;;;;;22.60;15.37;;;;;;;;;;5023579;28;20205;-79
2022/12/06 07:20:11;;;;;;;25.10;16.07;;;;;;;;;;5031383;28;20177;-80
2022/12/06 07:23:15;;;;;;;22.90;14.87;;;;;;;;;;5041251;28;20172;-79
2022/12/06 07:26:23;;;;;;;24.13;15.17;;;;;;;;;;5025956;28;20196;-79
2022/12/06 07:29:27;;;;;;;26.70;15.80;;;;;;;;;;5022105;28;20182;-79
2022/12/06 07:32:35;;;;;;;25.43;16.20;;;;;;;;;;5032189;28;20229;-78
2022/12/06 07:35:40;;;;;;;22.33;15.77;;;;;;;;;;5012063;28;20541;-79
2022/12/06 07:38:53;;;;;;;24.10;16.00;;;;;;;;;;5024558;28;20205;-79
2022/12/06 07:45:27;;;;;;;23.17;14.87;;;;;;;;;;5026342;28;20209;-79
2022/12/06 07:48:32;;;;;;;25.83;16.23;;;;;;;;;;5013893;28;20181;-79
2022/12/06 07:51:36;;;;;;;22.60;15.33;;;;;;;;;;5012755;28;20213;-79
2022/12/06 07:54:40;;;;;;;22.83;14.80;;;;;;;;;;5021956;28;20184;-78
2022/12/06 07:57:44;;;;;;;22.67;15.10;;;;;;;;;;5044800;28;20620;-79
2022/12/06 08:00:49;;;;;;;24.47;15.30;;;;;;;;;;5043641;28;20621;-79
2022/12/06 08:03:55;;;;;;;23.13;15.00;;;;;;;;;;5020418;28;20181;-79
2022/12/06 08:06:59;;;;;;;20.73;13.87;;;;;;;;;;5042810;28;20177;-79
2022/12/06 08:10:04;;;;;;;24.47;14.90;;;;;;;;;;5097111;23;20235;-88
2022/12/06 08:13:08;;;;;;;21.77;14.20;;;;;;;;;;5033000;28;20200;-88
2022/12/06 08:16:12;;;;;;;21.60;14.63;;;;;;;;;;5022486;28;20172;-88
2022/12/06 08:19:16;;;;;;;23.13;15.40;;;;;;;;;;5033266;28;20568;-88
2022/12/06 08:22:20;;;;;;;25.63;17.43;;;;;;;;;;5022304;28;20196;-88
2022/12/06 08:25:25;;;;;;;22.03;15.23;;;;;;;;;;5023329;28;20555;-87
2022/12/06 08:28:30;;;;;;;23.23;15.77;;;;;;;;;;5022804;28;20184;-88
2022/12/06 08:31:34;;;;;;;25.87;16.47;;;;;;;;;;5035945;28;20189;-88
2022/12/06 08:34:38;;;;;;;27.63;17.30;;;;;;;;;;5022881;28;20740;-89
2022/12/06 08:37:42;;;;;;;22.37;14.73;;;;;;;;;;5021595;28;20199;-88
2022/12/06 08:40:46;;;;;;;26.23;17.23;;;;;;;;;;5044513;28;20211;-88
2022/12/06 08:43:50;;;;;;;40.47;26.27;;;;;;;;;;5032551;28;20179;-89
2022/12/06 08:46:55;;;;;;;77.57;61.87;;;;;;;;;;5031788;28;20189;-88
2022/12/06 08:49:59;;;;;;;45.50;36.13;;;;;;;;;;5021305;28;20552;-88
2022/12/06 08:53:03;;;;;;;31.80;23.50;;;;;;;;;;5021170;28;20180;-88
2022/12/06 08:56:07;;;;;;;26.37;18.40;;;;;;;;;;5021036;28;20172;-89
2022/12/06 08:59:12;;;;;;;30.97;20.87;;;;;;;;;;5035875;28;20630;-88
2022/12/06 09:02:16;;;;;;;34.33;24.43;;;;;;;;;;5024431;28;20176;-88
2022/12/06 09:05:20;;;;;;;50.70;33.63;;;;;;;;;;5036049;28;20208;-88
2022/12/06 09:08:25;;;;;;;47.27;30.33;;;;;;;;;;5022014;28;20176;-87
2022/12/06 09:11:29;;;;;;;72.10;54.23;;;;;;;;;;5031905;28;20207;-88
2022/12/06 09:14:33;;;;;;;27.77;18.30;;;;;;;;;;5020651;28;20176;-88
2022/12/06 09:17:37;;;;;;;22.40;15.97;;;;;;;;;;5043055;28;20184;-88
2022/12/06 09:20:41;;;;;;;24.87;17.33;;;;;;;;;;5031797;28;20211;-88
2022/12/06 09:23:46;;;;;;;32.67;19.43;;;;;;;;;;5020755;28;20184;-88
2022/12/06 09:26:50;;;;;;;28.67;20.63;;;;;;;;;;5020620;28;20173;-89
2022/12/06 09:29:54;;;;;;;28.63;19.67;;;;;;;;;;5020425;28;20215;-89
2022/12/06 09:32:58;;;;;;;31.60;20.23;;;;;;;;;;5020407;28;20532;-88
2022/12/06 09:36:12;;;;;;;26.83;20.33;;;;;;;;;;5019879;28;20176;-88
2022/12/06 09:39:30;;;;;;;24.27;17.33;;;;;;;;;;5031354;28;20185;-89
2022/12/06 09:42:59;;;;;;;27.80;16.97;;;;;;;;;;5019962;28;20200;-88
2022/12/06 09:46:09;;;;;;;30.50;18.80;;;;;;;;;;5019835;28;20219;-88
2022/12/06 09:49:57;;;;;;;22.07;15.93;;;;;;;;;;5020226;28;20635;-88
2022/12/06 09:53:01;;;;;;;20.13;14.57;;;;;;;;;;5031347;28;20526;-89
2022/12/06 09:56:19;;;;;;;22.93;16.53;;;;;;;;;;5019997;28;20655;-88
2022/12/06 09:59:41;;;;;;;25.50;16.60;;;;;;;;;;5019085;28;20180;-88
2022/12/06 10:03:05;;;;;;;23.77;16.93;;;;;;;;;;5019645;28;20184;-88
2022/12/06 10:06:15;;;;;;;22.33;16.43;;;;;;;;;;5020708;28;20662;-88
2022/12/06 10:09:31;;;;;;;23.70;14.83;;;;;;;;;;5020134;28;20172;-88
2022/12/06 10:12:54;;;;;;;33.07;20.63;;;;;;;;;;5020789;28;20181;-88
2022/12/06 10:16:16;;;;;;;25.10;16.93;;;;;;;;;;5031401;28;20176;-89
2022/12/06 10:19:47;;;;;;;34.90;22.83;;;;;;;;;;5020273;28;20516;-88
2022/12/06 10:23:09;;;;;;;23.87;15.77;;;;;;;;;;5031195;28;20184;-88
2022/12/06 10:26:16;;;;;;;42.30;28.27;;;;;;;;;;5020092;28;20552;-88
2022/12/06 10:29:32;;;;;;;47.27;32.17;;;;;;;;;;5042738;28;20195;-88
2022/12/06 10:33:04;;;;;;;32.00;22.17;;;;;;;;;;5019541;28;20176;-88
2022/12/06 10:36:10;;;;;;;34.63;24.17;;;;;;;;;;5030877;28;20180;-88
2022/12/06 10:39:22;;;;;;;32.23;17.53;;;;;;;;;;5030875;28;20172;-89
2022/12/06 10:42:33;;;;;;;21.53;14.77;;;;;;;;;;5030356;28;20192;-88
2022/12/06 10:49:34;;;;;;;24.40;17.73;;;;;;;;;;5041527;28;20187;-88
2022/12/06 10:52:50;;;;;;;31.77;20.63;;;;;;;;;;5019375;28;20172;-88
2022/12/06 10:56:00;;;;;;;20.93;14.23;;;;;;;;;;5030782;28;20536;-88
2022/12/06 10:59:19;;;;;;;30.93;21.17;;;;;;;;;;5030254;28;20180;-88
2022/12/06 11:02:33;;;;;;;23.60;16.80;;;;;;;;;;5019014;28;20180;-88
2022/12/06 11:05:52;;;;;;;30.50;22.77;;;;;;;;;;5019047;28;20208;-88
2022/12/06 11:09:03;;;;;;;23.03;17.33;;;;;;;;;;5053834;28;20184;-88
2022/12/06 11:12:28;;;;;;;20.33;14.70;;;;;;;;;;5034170;28;20180;-88
2022/12/06 11:15:37;;;;;;;23.03;14.27;;;;;;;;;;5045468;28;20176;-89
2022/12/06 11:18:42;;;;;;;21.50;14.33;;;;;;;;;;5045422;28;20176;-88
2022/12/06 11:22:06;;;;;;;19.63;14.63;;;;;;;;;;5034087;28;20180;-88
2022/12/06 11:25:20;;;;;;;36.73;25.60;;;;;;;;;;5022587;28;20651;-88
2022/12/06 11:28:35;;;;;;;47.57;31.03;;;;;;;;;;5045097;28;20176;-88
2022/12/06 11:31:46;;;;;;;23.53;16.50;;;;;;;;;;5022720;28;20597;-88
2022/12/06 11:34:54;;;;;;;24.03;16.07;;;;;;;;;;5033596;28;20188;-88
2022/12/06 11:38:04;;;;;;;21.50;14.67;;;;;;;;;;5044686;28;20192;-88
2022/12/06 11:41:16;;;;;;;20.53;14.37;;;;;;;;;;5022007;28;20219;-88
2022/12/06 11:44:24;;;;;;;16.57;11.80;;;;;;;;;;5034677;28;20184;-88
2022/12/06 11:47:28;;;;;;;17.97;12.70;;;;;;;;;;5022402;28;20177;-88
2022/12/06 11:50:35;;;;;;;17.90;12.10;;;;;;;;;;5033157;28;20215;-88
2022/12/06 11:53:57;;;;;;;18.53;12.03;;;;;;;;;;5044475;28;20181;-88
2022/12/06 11:57:13;;;;;;;16.33;10.83;;;;;;;;;;5033052;28;20180;-88
2022/12/06 12:00:19;;;;;;;16.13;11.97;;;;;;;;;;5033027;28;20678;-88
2022/12/06 12:03:35;;;;;;;16.83;12.50;;;;;;;;;;5021778;28;20524;-89
2022/12/06 12:06:39;;;;;;;16.20;12.07;;;;;;;;;;5022112;28;20219;-88
2022/12/06 12:09:49;;;;;;;15.83;12.07;;;;;;;;;;5021844;28;20223;-88
2022/12/06 12:16:48;;;;;;;15.73;11.13;;;;;;;;;;5032645;28;20184;-88
2022/12/06 12:20:04;;;;;;;13.70;9.80;;;;;;;;;;5032867;28;20216;-87
2022/12/06 12:23:22;;;;;;;14.40;10.77;;;;;;;;;;5032857;28;20192;-88
2022/12/06 12:26:39;;;;;;;14.93;10.77;;;;;;;;;;5045259;28;20208;-88
2022/12/06 12:29:43;;;;;;;12.67;9.47;;;;;;;;;;5021785;28;20216;-88
2022/12/06 12:32:50;;;;;;;14.17;10.00;;;;;;;;;;5021801;28;20180;-88
2022/12/06 12:36:16;;;;;;;16.23;11.03;;;;;;;;;;5022182;28;20168;-88
2022/12/06 12:39:31;;;;;;;16.37;11.80;;;;;;;;;;5027291;28;20185;-88
2022/12/06 12:42:38;;;;;;;16.87;12.00;;;;;;;;;;5043843;28;20181;-88
2022/12/06 12:46:01;;;;;;;16.73;12.27;;;;;;;;;;5021265;28;20204;-88
2022/12/06 12:49:31;;;;;;;26.70;18.47;;;;;;;;;;5021707;28;20627;-88
2022/12/06 12:52:39;;;;;;;15.10;11.23;;;;;;;;;;5021502;28;20176;-87
2022/12/06 12:55:44;;;;;;;17.53;13.50;;;;;;;;;;5032322;28;20168;-88
2022/12/06 12:58:51;;;;;;;16.30;12.90;;;;;;;;;;5020731;28;20195;-88
2022/12/06 13:02:20;;;;;;;18.10;12.00;;;;;;;;;;5032108;28;20202;-86
2022/12/06 13:05:31;;;;;;;16.37;11.43;;;;;;;;;;5021126;28;20646;-87
2022/12/06 13:08:36;;;;;;;18.03;10.87;;;;;;;;;;5043482;28;20184;-87
2022/12/06 13:11:49;;;;;;;31.30;23.13;;;;;;;;;;5020556;28;20180;-87
2022/12/06 13:14:59;;;;;;;82.83;57.47;;;;;;;;;;5020458;28;20516;-87
2022/12/06 13:18:11;;;;;;;29.17;24.47;;;;;;;;;;5020627;28;20180;-87
2022/12/06 13:21:21;;;;;;;25.87;19.97;;;;;;;;;;5031857;28;20207;-87
2022/12/06 13:24:29;;;;;;;18.77;14.37;;;;;;;;;;5020365;28;20180;-87
2022/12/06 13:27:39;;;;;;;20.03;14.63;;;;;;;;;;5031653;28;20200;-87
2022/12/06 13:30:45;;;;;;;19.07;15.83;;;;;;;;;;5031453;28;20216;-87
2022/12/06 13:34:01;;;;;;;21.50;16.87;;;;;;;;;;5030724;28;20196;-86
2022/12/06 13:37:27;;;;;;;107.93;62.40;;;;;;;;;;5019984;28;20525;-87
2022/12/06 13:40:31;;;;;;;116.13;66.40;;;;;;;;;;5031172;28;20223;-87
2022/12/06 13:43:35;;;;;;;35.93;25.70;;;;;;;;;;5020046;28;20191;-87
2022/12/06 13:46:39;;;;;;;27.97;19.33;;;;;;;;;;5019500;28;20223;-87
2022/12/06 13:49:43;;;;;;;15.40;11.17;;;;;;;;;;5042126;28;20586;-87
2022/12/06 13:52:47;;;;;;;17.20;12.53;;;;;;;;;;5030842;28;20176;-87
2022/12/06 13:56:00;;;;;;;14.67;10.00;;;;;;;;;;5019403;28;20639;-87
2022/12/06 13:59:11;;;;;;;14.50;9.63;;;;;;;;;;5019130;28;20192;-87
2022/12/06 14:02:40;;;;;;;13.70;9.33;;;;;;;;;;5030615;28;20180;-87
2022/12/06 14:06:06;;;;;;;13.87;9.90;;;;;;;;;;5019280;28;20176;-87
2022/12/06 14:09:12;;;;;;;13.40;9.67;;;;;;;;;;5018838;28;20536;-87
2022/12/06 14:12:19;;;;;;;14.83;10.07;;;;;;;;;;5031387;28;20176;-87
2022/12/06 14:15:23;;;;;;;12.77;10.10;;;;;;;;;;5030313;28;20525;-87
2022/12/06 14:18:28;;;;;;;17.60;12.27;;;;;;;;;;5030551;28;20180;-87
2022/12/06 14:21:36;;;;;;;61.30;49.10;;;;;;;;;;5019578;28;20184;-87
2022/12/06 14:24:53;;;;;;;39.43;31.20;;;;;;;;;;5019203;28;20658;-87
2022/12/06 14:28:10;;;;;;;25.67;19.37;;;;;;;;;;5018949;28;20212;-86
2022/12/06 14:31:21;;;;;;;25.80;19.37;;;;;;;;;;5019237;28;20216;-88
2022/12/06 14:34:27;;;;;;;20.20;16.50;;;;;;;;;;5030845;28;20186;-87
2022/12/06 14:37:32;;;;;;;26.73;17.60;;;;;;;;;;5030029;28;20196;-87
2022/12/06 14:44:15;;;;;;;15.47;10.93;;;;;;;;;;5031200;28;20183;-87
2022/12/06 14:47:20;;;;;;;20.33;15.50;;;;;;;;;;5023242;28;20211;-87
2022/12/06 14:50:39;;;;;;;69.93;43.37;;;;;;;;;;5034382;28;20216;-88
2022/12/06 14:53:43;;;;;;;182.93;86.87;;;;;;;;;;5034704;28;20180;-87
2022/12/06 14:56:47;;;;;;;92.47;49.53;;;;;;;;;;5034204;28;20175;-88
2022/12/06 15:00:15;;;;;;;29.00;19.97;;;;;;;;;;5023077;28;20216;-88
2022/12/06 15:03:24;;;;;;;24.17;16.40;;;;;;;;;;5034546;28;20222;-87
2022/12/06 15:06:30;;;;;;;22.83;15.10;;;;;;;;;;5034320;28;20208;-87
2022/12/06 15:09:44;;;;;;;20.83;13.40;;;;;;;;;;5034649;28;20223;-87
2022/12/06 15:12:56;;;;;;;19.73;12.80;;;;;;;;;;5023240;28;20188;-87
2022/12/06 15:16:06;;;;;;;34.80;21.83;;;;;;;;;;5035009;28;20184;-88
2022/12/06 15:19:15;;;;;;;36.37;21.87;;;;;;;;;;5034986;28;20181;-87
2022/12/06 15:22:28;;;;;;;35.73;21.20;;;;;;;;;;5034273;28;20195;-87
2022/12/06 15:25:32;;;;;;;30.23;19.07;;;;;;;;;;5033863;28;20184;-87
2022/12/06 15:28:36;;;;;;;26.87;17.77;;;;;;;;;;5022790;28;20176;-87
2022/12/06 15:31:43;;;;;;;30.83;19.53;;;;;;;;;;5033788;28;20176;-87
2022/12/06 15:34:47;;;;;;;27.63;18.67;;;;;;;;;;5044752;28;20522;-87
2022/12/06 15:37:51;;;;;;;39.53;26.27;;;;;;;;;;5022457;28;20172;-88
2022/12/06 15:40:55;;;;;;;27.13;17.00;;;;;;;;;;5022404;28;20216;-89
2022/12/06 15:43:59;;;;;;;23.80;16.87;;;;;;;;;;5023225;28;20180;-87
2022/12/06 15:47:04;;;;;;;38.43;25.40;;;;;;;;;;5035328;28;20204;-87
2022/12/06 15:50:12;;;;;;;36.97;23.93;;;;;;;;;;5042935;28;20199;-87
2022/12/06 15:53:19;;;;;;;26.43;17.63;;;;;;;;;;5054113;28;20176;-87
2022/12/06 15:56:27;;;;;;;34.83;24.43;;;;;;;;;;5042665;28;20200;-87
2022/12/06 15:59:31;;;;;;;43.53;29.53;;;;;;;;;;5042246;28;20220;-88
2022/12/06 16:02:36;;;;;;;25.90;18.10;;;;;;;;;;5032335;28;20180;-88
2022/12/06 16:05:40;;;;;;;25.53;17.33;;;;;;;;;;5030966;28;20180;-87
2022/12/06 16:08:45;;;;;;;28.17;20.67;;;;;;;;;;5043064;28;20208;-87
2022/12/06 16:11:49;;;;;;;23.83;17.23;;;;;;;;;;5030189;28;20631;-87
2022/12/06 16:14:53;;;;;;;22.63;15.30;;;;;;;;;;5052721;28;20184;-87
2022/12/06 16:17:58;;;;;;;18.93;13.10;;;;;;;;;;5041564;28;20176;-89
2022/12/06 16:21:03;;;;;;;19.23;14.77;;;;;;;;;;5029908;28;20212;-88
2022/12/06 16:24:11;;;;;;;22.00;16.17;;;;;;;;;;5040329;28;20517;-88
2022/12/06 16:27:15;;;;;;;21.63;14.10;;;;;;;;;;5028252;28;20220;-89
2022/12/06 16:30:33;;;;;;;20.63;14.13;;;;;;;;;;5038790;28;20216;-89
2022/12/06 16:33:37;;;;;;;20.93;13.07;;;;;;;;;;5026872;28;20184;-89
2022/12/06 16:37:05;;;;;;;18.77;12.97;;;;;;;;;;5036840;28;20172;-89
2022/12/06 16:40:18;;;;;;;19.20;13.20;;;;;;;;;;5036400;28;20211;-87
2022/12/06 16:43:22;;;;;;;34.07;20.50;;;;;;;;;;5036064;28;20180;-87
2022/12/06 16:46:31;;;;;;;40.77;21.40;;;;;;;;;;5046765;28;20549;-88
2022/12/06 16:49:38;;;;;;;22.50;14.40;;;;;;;;;;5034506;28;20216;-87
2022/12/06 16:52:42;;;;;;;34.57;21.43;;;;;;;;;;5046188;28;20176;-87
2022/12/06 16:55:46;;;;;;;24.47;16.10;;;;;;;;;;5023639;28;20520;-88
2022/12/06 16:58:50;;;;;;;23.83;14.83;;;;;;;;;;5023430;28;20176;-87
2022/12/06 17:01:54;;;;;;;21.00;14.57;;;;;;;;;;5033775;28;20627;-87
2022/12/06 17:05:01;;;;;;;20.70;13.97;;;;;;;;;;5033862;28;20183;-87
2022/12/06 17:08:05;;;;;;;21.37;13.83;;;;;;;;;;5033354;28;20219;-87
2022/12/06 17:14:41;;;;;;;22.80;14.53;;;;;;;;;;5033207;28;20192;-88
2022/12/06 17:17:46;;;;;;;25.70;17.97;;;;;;;;;;5044779;28;20173;-88
2022/12/06 17:20:50;;;;;;;26.73;17.37;;;;;;;;;;5021014;28;20216;-88
2022/12/06 17:23:59;;;;;;;45.90;28.30;;;;;;;;;;5022096;28;20200;-88
2022/12/06 17:27:04;;;;;;;29.23;18.43;;;;;;;;;;5024847;28;20221;-88
2022/12/06 17:30:12;;;;;;;28.27;17.67;;;;;;;;;;5013284;28;20217;-87
2022/12/06 17:33:16;;;;;;;20.80;13.93;;;;;;;;;;5002758;28;20185;-87
2022/12/06 17:36:20;;;;;;;20.80;13.17;;;;;;;;;;5003259;28;20515;-87
2022/12/06 17:39:24;;;;;;;22.70;13.90;;;;;;;;;;5002533;28;20662;-87
2022/12/06 17:45:51;;;;;;;46.50;29.50;;;;;;;;;;5017253;28;20185;-87
2022/12/06 17:48:56;;;;;;;37.90;22.43;;;;;;;;;;5006233;28;20204;-88
2022/12/06 17:52:01;;;;;;;34.63;20.97;;;;;;;;;;5014623;28;20193;-86
2022/12/06 17:55:05;;;;;;;31.40;18.67;;;;;;;;;;5016771;28;20688;-88
2022/12/06 17:58:09;;;;;;;26.33;17.10;;;;;;;;;;5000990;28;20193;-88
2022/12/06 18:01:13;;;;;;;22.87;13.43;;;;;;;;;;5001950;28;20224;-86
2022/12/06 18:04:17;;;;;;;17.77;12.10;;;;;;;;;;5015610;28;20572;-85
2022/12/06 18:07:21;;;;;;;21.87;15.10;;;;;;;;;;5012519;28;20209;-85
2022/12/06 18:10:25;;;;;;;20.13;15.80;;;;;;;;;;5001122;28;20223;-86
2022/12/06 18:13:29;;;;;;;19.80;13.60;;;;;;;;;;5002564;28;20534;-84
2022/12/06 18:16:36;;;;;;;19.07;13.20;;;;;;;;;;5014437;28;20177;-84
2022/12/06 18:19:45;;;;;;;16.80;12.43;;;;;;;;;;5003596;28;20208;-86
2022/12/06 18:22:49;;;;;;;19.57;11.47;;;;;;;;;;5014220;28;20181;-85
2022/12/06 18:25:54;;;;;;;22.63;16.10;;;;;;;;;;5002011;28;20192;-84
2022/12/06 18:29:00;;;;;;;31.23;20.57;;;;;;;;;;5006751;28;20201;-85
2022/12/06 18:32:04;;;;;;;30.17;18.50;;;;;;;;;;5005274;28;20181;-85
2022/12/06 18:35:08;;;;;;;15.97;11.30;;;;;;;;;;5001742;28;20181;-85
2022/12/06 18:38:12;;;;;;;25.20;16.70;;;;;;;;;;5011816;28;20177;-86
2022/12/06 18:41:19;;;;;;;17.43;12.73;;;;;;;;;;5011846;28;20220;-85
2022/12/06 18:44:24;;;;;;;13.77;9.77;;;;;;;;;;5010840;28;20201;-86
2022/12/06 18:47:28;;;;;;;12.83;8.73;;;;;;;;;;5000219;28;20205;-86
2022/12/06 18:50:33;;;;;;;12.47;8.17;;;;;;;;;;5011162;28;20212;-86
2022/12/06 18:53:38;;;;;;;12.13;8.53;;;;;;;;;;5023139;28;20181;-86
2022/12/06 18:56:43;;;;;;;11.53;8.20;;;;;;;;;;5026662;28;20181;-86